Gilmore, Arkansas
Current Conditions -  °F | °C
As of 7:53 AM on Saturday 20 Dec 2014 (Local Time) from KAWM Reporting Station
Overcast Overcast  
Wind Chill: 36°   Ceiling: 5500
Heat Index: 39°   Visibility: 9mi
Dew Point: 35°   Wind: 5mph
Humidity: 86%   Direction: 60°ENE
Pressure: 30.27"   Gusts: NA
Location:  35.41°N, 90.28°W
Report Text: KAWM 201353Z AUTO 06004KT 9SM OVC055 04/02 A3027 RMK AO2 SLP252 T00390017
Loading
Personal Weather Stations






























Interactive Weather Map New forecast layout! Learn more

10-Day Weather Forecast

Advertisements
Track Severe Weather on mobile